Urb Altamesa, Puerto Rico
Current Conditions -  °F | °C
As of 6:56 PM on Saturday 20 Dec 2014 (Local Time) from TJSJ Reporting Station
Few Clouds Few Clouds  
Wind Chill: 80°   Ceiling: Unl
Heat Index: 84°   Visibility: 10mi
Dew Point: 72°   Wind: 6mph
Humidity: 76%   Direction: 90°E
Pressure: 30.01"   Gusts: NA
Location:  18.3905°N, 66.0903°W
Report Text: TJSJ 202256Z 09005KT 10SM FEW028 27/22 A3001 RMK AO2 SLP162 T02670222
Loading
Personal Weather Stations






























Interactive Weather Map New forecast layout! Learn more

10-Day Weather Forecast

Advertisements
Track Severe Weather on mobile